createdAt,value
2022-12-05T00:01:28.764Z,72.43
2022-12-05T00:03:58.685Z,72.57
2022-12-05T00:06:28.060Z,72.46
2022-12-05T00:08:55.311Z,72.51
2022-12-05T00:11:27.123Z,72.52
2022-12-05T00:13:55.598Z,72.59
2022-12-05T00:16:26.131Z,72.70
2022-12-05T00:19:08.556Z,72.52
2022-12-05T00:21:37.192Z,72.90
2022-12-05T00:24:05.655Z,73.05
2022-12-05T00:26:32.748Z,72.65
2022-12-05T00:29:01.471Z,72.71
2022-12-05T00:31:28.705Z,72.64
2022-12-05T00:33:56.732Z,72.69
2022-12-05T00:36:30.763Z,72.65
2022-12-05T00:38:59.289Z,72.84
2022-12-05T00:41:27.679Z,72.90
2022-12-05T00:43:55.217Z,72.80
2022-12-05T00:46:24.297Z,73.06
2022-12-05T00:48:53.247Z,73.02
2022-12-05T00:51:28.590Z,73.02
2022-12-05T00:53:58.022Z,73.06
2022-12-05T00:56:26.338Z,73.08
2022-12-05T00:58:54.953Z,72.91
2022-12-05T01:01:24.969Z,73.25
2022-12-05T01:03:55.112Z,73.22
2022-12-05T01:06:23.516Z,73.06
2022-12-05T01:08:50.220Z,73.03
2022-12-05T01:11:18.875Z,72.94
2022-12-05T01:13:46.584Z,72.99
2022-12-05T01:16:20.835Z,73.06
2022-12-05T01:18:47.458Z,72.98
2022-12-05T01:21:14.011Z,72.94
2022-12-05T01:23:40.848Z,73.05
2022-12-05T01:26:09.287Z,72.94
2022-12-05T01:28:36.769Z,73.06
2022-12-05T01:31:08.662Z,72.99
2022-12-05T01:33:35.714Z,73.11
2022-12-05T01:36:03.705Z,73.37
2022-12-05T01:38:30.368Z,73.39
2022-12-05T01:41:02.004Z,73.00
2022-12-05T01:43:28.730Z,73.28
2022-12-05T01:45:55.370Z,73.13
2022-12-05T01:48:35.664Z,73.16
2022-12-05T01:51:02.728Z,73.37
2022-12-05T01:53:29.646Z,73.10
2022-12-05T01:55:57.328Z,73.39
2022-12-05T01:58:28.202Z,73.36
2022-12-05T02:00:54.832Z,73.32
2022-12-05T02:03:22.068Z,73.23
2022-12-05T02:05:52.589Z,73.23
2022-12-05T02:08:19.882Z,73.20
2022-12-05T02:10:50.491Z,73.35
2022-12-05T02:13:47.111Z,73.10
2022-12-05T02:16:35.810Z,73.12
2022-12-05T02:19:27.596Z,73.50
2022-12-05T02:22:26.821Z,73.22
2022-12-05T02:25:26.659Z,73.52
2022-12-05T02:28:08.529Z,73.09
2022-12-05T02:30:40.899Z,73.25
2022-12-05T02:33:10.109Z,73.48
2022-12-05T02:35:49.039Z,73.29
2022-12-05T02:38:37.224Z,73.55
2022-12-05T02:41:37.839Z,73.30
2022-12-05T02:44:12.070Z,73.01
2022-12-05T02:46:40.247Z,73.67
2022-12-05T02:49:13.177Z,73.25
2022-12-05T02:51:43.480Z,73.54
2022-12-05T02:54:21.606Z,73.37
2022-12-05T02:56:49.537Z,73.25
2022-12-05T02:59:21.486Z,73.60
2022-12-05T03:01:49.938Z,73.32
2022-12-05T03:04:19.063Z,73.30
2022-12-05T03:07:00.115Z,73.27
2022-12-05T03:09:45.734Z,73.56
2022-12-05T03:12:22.768Z,73.37
2022-12-05T03:14:54.927Z,73.45
2022-12-05T03:17:29.500Z,73.47
2022-12-05T03:20:11.916Z,73.25
2022-12-05T03:23:29.459Z,73.30
2022-12-05T03:26:17.138Z,73.35
2022-12-05T03:29:21.241Z,73.31
2022-12-05T03:32:03.037Z,73.22
2022-12-05T03:34:43.798Z,73.20
2022-12-05T03:37:20.234Z,73.21
2022-12-05T03:39:54.447Z,73.39
2022-12-05T03:42:31.598Z,73.37
2022-12-05T03:45:03.329Z,73.46
2022-12-05T03:47:38.624Z,73.48
2022-12-05T03:50:19.178Z,73.17
2022-12-05T03:53:18.527Z,73.37
2022-12-05T03:55:42.303Z,73.23
2022-12-05T03:58:18.364Z,73.13
2022-12-05T04:00:50.753Z,73.40
2022-12-05T04:03:22.582Z,73.21
2022-12-05T04:05:59.625Z,73.12
2022-12-05T04:08:35.503Z,73.37
2022-12-05T04:11:07.371Z,73.42
2022-12-05T04:13:44.071Z,73.18
2022-12-05T04:16:35.873Z,73.33
2022-12-05T04:19:07.999Z,73.23
2022-12-05T04:21:42.783Z,73.26
2022-12-05T04:24:33.452Z,73.51
2022-12-05T04:27:28.026Z,73.40
2022-12-05T04:30:14.647Z,73.56
2022-12-05T04:32:53.357Z,73.23
2022-12-05T04:35:25.498Z,73.33
2022-12-05T04:37:58.304Z,73.79
2022-12-05T04:40:49.654Z,73.36
2022-12-05T04:43:18.766Z,73.57
2022-12-05T04:45:45.662Z,73.44
2022-12-05T04:48:16.056Z,73.26
2022-12-05T04:50:46.542Z,73.52
2022-12-05T04:53:16.742Z,73.21
2022-12-05T04:55:50.041Z,73.12
2022-12-05T04:58:20.163Z,73.33
2022-12-05T05:00:59.274Z,73.44
2022-12-05T05:03:42.275Z,73.50
2022-12-05T05:06:11.781Z,73.58
2022-12-05T05:08:56.049Z,73.17
2022-12-05T05:11:26.472Z,73.61
2022-12-05T05:13:54.101Z,73.45
2022-12-05T05:16:24.724Z,73.47
2022-12-05T05:18:52.108Z,73.72
2022-12-05T05:21:23.976Z,73.52
2022-12-05T05:23:51.008Z,73.35
2022-12-05T05:26:18.642Z,73.42
2022-12-05T05:28:46.238Z,73.27
2022-12-05T05:31:13.671Z,73.30
2022-12-05T05:33:40.533Z,73.54
2022-12-05T05:36:09.632Z,73.39
2022-12-05T05:38:44.432Z,73.22
2022-12-05T05:41:16.884Z,73.26
2022-12-05T05:43:44.516Z,73.19
2022-12-05T05:46:11.413Z,73.36
2022-12-05T05:48:38.350Z,73.30
2022-12-05T05:51:06.626Z,73.42
2022-12-05T05:53:33.252Z,73.28
2022-12-05T05:56:04.504Z,73.22
2022-12-05T05:58:31.054Z,73.31
2022-12-05T06:01:13.370Z,73.00
2022-12-05T06:03:40.163Z,73.16
2022-12-05T06:06:09.878Z,73.14
2022-12-05T06:08:39.071Z,73.57
2022-12-05T06:11:10.953Z,73.38
2022-12-05T06:13:37.912Z,73.18
2022-12-05T06:16:07.040Z,73.07
2022-12-05T06:18:34.428Z,73.33
2022-12-05T06:21:01.116Z,73.33
2022-12-05T06:23:28.197Z,73.36
2022-12-05T06:25:56.266Z,73.36
2022-12-05T06:28:25.647Z,73.32
2022-12-05T06:30:52.620Z,73.51
2022-12-05T06:33:20.208Z,73.47
2022-12-05T06:35:47.572Z,73.21
2022-12-05T06:38:14.408Z,73.45
2022-12-05T06:40:42.829Z,73.19
2022-12-05T06:43:09.968Z,72.92
2022-12-05T06:45:39.544Z,73.31
2022-12-05T06:48:06.921Z,73.20
2022-12-05T06:50:33.673Z,73.29
2022-12-05T06:53:00.143Z,73.37
2022-12-05T06:55:27.068Z,73.44
2022-12-05T06:57:53.512Z,73.31
2022-12-05T07:00:38.644Z,73.06
2022-12-05T07:03:05.064Z,73.15
2022-12-05T07:05:33.138Z,73.30
2022-12-05T07:07:59.595Z,73.21
2022-12-05T07:10:26.059Z,73.27
2022-12-05T07:12:52.524Z,73.44
2022-12-05T07:15:18.935Z,73.25
2022-12-05T07:17:45.373Z,73.13
2022-12-05T07:20:12.704Z,73.09
2022-12-05T07:22:39.150Z,73.40
2022-12-05T07:25:05.976Z,73.37
2022-12-05T07:27:34.026Z,73.21
2022-12-05T07:30:01.138Z,73.37
2022-12-05T07:32:31.963Z,73.27
2022-12-05T07:34:58.360Z,73.42
2022-12-05T07:37:24.918Z,73.17
2022-12-05T07:39:54.336Z,73.51
2022-12-05T07:42:20.905Z,73.47
2022-12-05T07:44:47.317Z,73.29
2022-12-05T07:47:13.786Z,73.65
2022-12-05T07:49:40.258Z,73.48
2022-12-05T07:52:06.872Z,73.27
2022-12-05T07:54:33.534Z,73.19
2022-12-05T07:56:59.946Z,73.17
2022-12-05T07:59:26.527Z,73.20
2022-12-05T08:01:52.988Z,73.54
2022-12-05T08:04:19.618Z,73.38
2022-12-05T08:06:46.272Z,73.27
2022-12-05T08:09:12.952Z,73.51
2022-12-05T08:11:39.585Z,73.15
2022-12-05T08:14:06.801Z,73.31
2022-12-05T08:16:34.368Z,73.48
2022-12-05T08:19:07.516Z,73.19
2022-12-05T08:21:34.933Z,73.37
2022-12-05T08:24:04.515Z,73.23
2022-12-05T08:26:32.057Z,73.21
2022-12-05T08:29:03.129Z,73.43
2022-12-05T08:31:32.528Z,73.22
2022-12-05T08:34:00.210Z,73.32
2022-12-05T08:36:29.253Z,73.70
2022-12-05T08:38:58.016Z,73.22
2022-12-05T08:41:28.486Z,73.29
2022-12-05T08:43:56.566Z,73.64
2022-12-05T08:46:23.066Z,73.36
2022-12-05T08:48:49.544Z,73.69
2022-12-05T08:51:15.971Z,73.42
2022-12-05T08:53:44.737Z,73.28
2022-12-05T08:56:12.047Z,73.47
2022-12-05T08:58:38.700Z,73.51
2022-12-05T09:01:07.212Z,73.20
2022-12-05T09:03:33.747Z,73.42
2022-12-05T09:06:15.023Z,73.25
2022-12-05T09:08:42.375Z,73.40
2022-12-05T09:11:14.540Z,73.23
2022-12-05T09:13:41.415Z,73.44
2022-12-05T09:16:13.407Z,73.65
2022-12-05T09:18:40.253Z,73.50
2022-12-05T09:21:12.586Z,73.12
2022-12-05T09:23:39.109Z,73.44
2022-12-05T09:26:07.564Z,73.59
2022-12-05T09:28:35.124Z,73.24
2022-12-05T09:31:05.266Z,73.41
2022-12-05T09:33:34.640Z,73.60
2022-12-05T09:36:06.195Z,73.31
2022-12-05T09:38:33.281Z,73.49
2022-12-05T09:41:43.729Z,73.35
2022-12-05T09:44:28.616Z,73.59
2022-12-05T09:47:00.572Z,73.29
2022-12-05T09:49:27.740Z,73.75
2022-12-05T09:51:55.644Z,73.48
2022-12-05T09:54:23.472Z,73.45
2022-12-05T09:56:51.797Z,73.51
2022-12-05T09:59:20.480Z,73.30
2022-12-05T10:01:55.886Z,73.80
2022-12-05T10:05:04.423Z,73.69
2022-12-05T10:07:42.676Z,73.64
2022-12-05T10:10:33.541Z,73.82
2022-12-05T10:13:20.315Z,73.49
2022-12-05T10:15:56.780Z,73.68
2022-12-05T10:18:46.978Z,73.88
2022-12-05T10:21:21.367Z,73.52
2022-12-05T10:23:58.935Z,73.53
2022-12-05T10:26:34.330Z,73.63
2022-12-05T10:29:31.727Z,73.56
2022-12-05T10:32:21.822Z,73.81
2022-12-05T10:34:50.718Z,73.92
2022-12-05T10:37:19.553Z,73.72
2022-12-05T10:39:47.885Z,73.91
2022-12-05T10:42:31.737Z,73.55
2022-12-05T10:45:14.131Z,73.71
2022-12-05T10:47:40.593Z,74.06
2022-12-05T10:50:22.558Z,73.74
2022-12-05T10:52:49.220Z,73.96
2022-12-05T10:55:17.874Z,73.79
2022-12-05T10:57:50.359Z,73.87
2022-12-05T11:00:21.236Z,73.75
2022-12-05T11:02:49.660Z,73.92
2022-12-05T11:05:27.084Z,73.86
2022-12-05T11:07:55.220Z,73.92
2022-12-05T11:10:44.106Z,73.56
2022-12-05T11:13:24.619Z,73.58
2022-12-05T11:15:55.511Z,73.97
2022-12-05T11:18:25.338Z,73.64
2022-12-05T11:20:52.154Z,73.94
2022-12-05T11:23:25.505Z,73.67
2022-12-05T11:25:52.919Z,74.05
2022-12-05T11:28:29.724Z,73.98
2022-12-05T11:31:06.809Z,73.76
2022-12-05T11:33:35.541Z,73.77
2022-12-05T11:36:22.521Z,73.83
2022-12-05T11:38:49.551Z,73.89
2022-12-05T11:41:43.357Z,73.60
2022-12-05T11:44:24.178Z,73.60
2022-12-05T11:46:57.468Z,73.68
2022-12-05T11:49:45.596Z,73.56
2022-12-05T11:52:37.377Z,73.50
2022-12-05T11:55:22.423Z,73.66
2022-12-05T11:58:16.108Z,73.89
2022-12-05T12:00:57.815Z,73.67
2022-12-05T12:03:51.860Z,73.90
2022-12-05T12:06:27.295Z,73.54
2022-12-05T12:09:30.722Z,73.82
2022-12-05T12:12:24.393Z,73.71
2022-12-05T12:15:20.022Z,73.66
2022-12-05T12:18:02.379Z,73.67
2022-12-05T12:21:08.799Z,73.83
2022-12-05T12:23:47.291Z,74.05
2022-12-05T12:26:35.367Z,73.81
2022-12-05T12:29:43.565Z,74.00
2022-12-05T12:32:58.009Z,74.15
2022-12-05T12:35:31.858Z,74.10
2022-12-05T12:38:17.550Z,73.94
2022-12-05T12:40:54.783Z,74.18
2022-12-05T12:43:53.973Z,73.82
2022-12-05T12:46:33.417Z,73.93
2022-12-05T12:49:15.381Z,74.33
2022-12-05T12:51:50.446Z,74.15
2022-12-05T12:55:01.567Z,73.98
2022-12-05T12:57:43.710Z,73.81
2022-12-05T13:00:27.741Z,73.76
2022-12-05T13:03:05.417Z,74.10
2022-12-05T13:05:39.166Z,73.86
2022-12-05T13:08:11.694Z,73.90
2022-12-05T13:10:44.728Z,73.62
2022-12-05T13:13:16.095Z,73.73
2022-12-05T13:15:54.503Z,73.90
2022-12-05T13:18:23.687Z,73.66
2022-12-05T13:20:56.158Z,73.69
2022-12-05T13:23:25.694Z,73.41
2022-12-05T13:25:54.794Z,73.84
2022-12-05T13:28:31.502Z,73.67
2022-12-05T13:31:03.742Z,73.36
2022-12-05T13:33:36.751Z,73.60
2022-12-05T13:36:26.259Z,73.58
2022-12-05T13:39:18.010Z,73.29
2022-12-05T13:42:09.316Z,73.68
2022-12-05T13:44:48.785Z,73.40
2022-12-05T13:47:59.357Z,73.64
2022-12-05T13:50:35.362Z,73.61
2022-12-05T13:53:05.686Z,73.47
2022-12-05T13:55:36.563Z,73.40
2022-12-05T13:58:21.813Z,73.49
2022-12-05T14:00:52.568Z,73.51
2022-12-05T14:03:34.525Z,73.33
2022-12-05T14:06:01.072Z,73.58
2022-12-05T14:08:30.462Z,73.61
2022-12-05T14:10:56.804Z,73.50
2022-12-05T14:13:27.003Z,73.21
2022-12-05T14:15:55.228Z,73.10
2022-12-05T14:18:50.856Z,73.14
2022-12-05T14:21:36.475Z,73.34
2022-12-05T14:24:28.058Z,73.09
2022-12-05T14:27:12.689Z,73.37
2022-12-05T14:29:59.614Z,73.32
2022-12-05T14:32:38.820Z,73.09
2022-12-05T14:35:23.805Z,73.32
2022-12-05T14:37:56.932Z,73.48
2022-12-05T14:40:35.241Z,72.91
2022-12-05T14:43:03.279Z,73.50
2022-12-05T14:45:40.016Z,73.38
2022-12-05T14:48:27.875Z,73.46
2022-12-05T14:50:56.867Z,73.44
2022-12-05T14:53:31.164Z,73.63
2022-12-05T14:56:01.047Z,73.19
2022-12-05T14:58:37.344Z,73.01
2022-12-05T15:01:14.855Z,73.04
2022-12-05T15:04:01.981Z,73.39
2022-12-05T15:06:28.811Z,73.10
2022-12-05T15:09:28.397Z,73.17
2022-12-05T15:11:45.493Z,73.42
2022-12-05T15:14:23.114Z,73.16
2022-12-05T15:16:52.325Z,73.39
2022-12-05T15:19:23.974Z,73.24
2022-12-05T15:21:57.526Z,73.19
2022-12-05T15:24:24.179Z,73.21
2022-12-05T15:26:53.981Z,73.43
2022-12-05T15:29:23.153Z,73.36
2022-12-05T15:31:57.220Z,73.50
2022-12-05T15:34:45.511Z,73.49
2022-12-05T15:37:33.534Z,73.19
2022-12-05T15:40:11.230Z,73.35
2022-12-05T15:42:42.680Z,73.50
2022-12-05T15:45:16.581Z,73.60
2022-12-05T15:47:45.968Z,73.49
2022-12-05T15:50:13.783Z,73.61
2022-12-05T15:53:12.347Z,73.48
2022-12-05T15:55:55.083Z,73.31
2022-12-05T15:58:26.441Z,73.52
2022-12-05T16:00:58.478Z,73.31
2022-12-05T16:03:36.697Z,73.51
2022-12-05T16:06:13.826Z,73.51
2022-12-05T16:08:45.368Z,73.12
2022-12-05T16:11:13.971Z,73.66
2022-12-05T16:13:49.851Z,73.57
2022-12-05T16:16:21.244Z,73.78
2022-12-05T16:18:57.890Z,73.42
2022-12-05T16:21:34.436Z,73.46
2022-12-05T16:24:17.668Z,73.29
2022-12-05T16:27:13.002Z,73.38
2022-12-05T16:29:39.634Z,73.18
2022-12-05T16:32:25.152Z,73.19
2022-12-05T16:34:51.613Z,73.54
2022-12-05T16:37:29.008Z,73.68
2022-12-05T16:39:56.142Z,73.39
2022-12-05T16:42:27.943Z,73.23
2022-12-05T16:45:02.206Z,73.65
2022-12-05T16:47:40.785Z,73.26
2022-12-05T16:50:34.936Z,73.38
2022-12-05T16:53:32.627Z,73.48
2022-12-05T16:56:00.377Z,73.37
2022-12-05T16:58:30.299Z,73.62
2022-12-05T17:01:02.385Z,73.33
2022-12-05T17:03:36.652Z,73.31
2022-12-05T17:06:03.549Z,73.38
2022-12-05T17:08:29.939Z,73.32
2022-12-05T17:10:57.861Z,73.46
2022-12-05T17:13:24.339Z,73.68
2022-12-05T17:15:51.190Z,73.47
2022-12-05T17:18:20.724Z,73.74
2022-12-05T17:20:54.343Z,73.46
2022-12-05T17:23:20.742Z,73.54
2022-12-05T17:25:56.467Z,73.37
2022-12-05T17:28:24.033Z,73.63
2022-12-05T17:30:51.287Z,73.61
2022-12-05T17:33:19.719Z,73.75
2022-12-05T17:35:46.658Z,73.67
2022-12-05T17:38:13.200Z,73.47
2022-12-05T17:40:40.122Z,73.75
2022-12-05T17:43:06.797Z,73.67
2022-12-05T17:45:33.597Z,73.26
2022-12-05T17:48:00.098Z,73.50
2022-12-05T17:50:27.307Z,73.67
2022-12-05T17:52:56.887Z,73.67
2022-12-05T17:55:28.759Z,73.50
2022-12-05T17:57:55.650Z,73.42
2022-12-05T18:00:23.783Z,73.33
2022-12-05T18:02:52.276Z,73.64
2022-12-05T18:05:18.921Z,73.38
2022-12-05T18:07:45.742Z,73.24
2022-12-05T18:10:17.134Z,73.46
2022-12-05T18:12:43.656Z,73.61
2022-12-05T18:15:10.671Z,73.24
2022-12-05T18:17:37.292Z,73.49
2022-12-05T18:20:04.801Z,73.29
2022-12-05T18:22:31.392Z,73.20
2022-12-05T18:24:58.465Z,73.38
2022-12-05T18:27:25.584Z,73.24
2022-12-05T18:29:52.270Z,73.33
2022-12-05T18:32:19.765Z,73.22
2022-12-05T18:34:46.460Z,73.47
2022-12-05T18:37:13.175Z,73.59
2022-12-05T18:39:39.605Z,73.14
2022-12-05T18:42:11.767Z,73.60
2022-12-05T18:44:41.442Z,73.38
2022-12-05T18:47:08.056Z,73.31
2022-12-05T18:49:34.521Z,73.39
2022-12-05T18:52:01.195Z,73.65
2022-12-05T18:54:27.597Z,73.27
2022-12-05T18:56:54.106Z,73.59
2022-12-05T18:59:21.759Z,73.33
2022-12-05T19:01:49.257Z,73.26
2022-12-05T19:04:19.447Z,73.61
2022-12-05T19:06:54.340Z,73.36
2022-12-05T19:09:24.022Z,73.63
2022-12-05T19:11:54.845Z,73.28
2022-12-05T19:14:21.700Z,72.98
2022-12-05T19:16:53.683Z,73.31
2022-12-05T19:19:24.758Z,73.38
2022-12-05T19:21:51.914Z,73.10
2022-12-05T19:24:19.348Z,73.39
2022-12-05T19:26:47.792Z,73.46
2022-12-05T19:29:16.126Z,73.46
2022-12-05T19:31:43.463Z,73.36
2022-12-05T19:34:10.589Z,73.45
2022-12-05T19:36:42.907Z,73.29
2022-12-05T19:39:09.257Z,73.22
2022-12-05T19:41:36.387Z,73.26
2022-12-05T19:44:04.190Z,73.28
2022-12-05T19:46:32.928Z,73.31
2022-12-05T19:49:03.554Z,73.38
2022-12-05T19:51:31.626Z,73.47
2022-12-05T19:53:59.965Z,73.23
2022-12-05T19:56:28.483Z,73.33
2022-12-05T19:58:57.183Z,73.30
2022-12-05T20:01:30.654Z,73.18
2022-12-05T20:04:01.016Z,73.55
2022-12-05T20:06:32.089Z,73.14
2022-12-05T20:08:59.792Z,73.48
2022-12-05T20:11:28.956Z,73.27
2022-12-05T20:13:56.729Z,73.23
2022-12-05T20:16:26.896Z,73.31
2022-12-05T20:18:55.458Z,73.12
2022-12-05T20:21:22.968Z,73.17
2022-12-05T20:23:51.521Z,73.38
2022-12-05T20:26:26.422Z,73.49
2022-12-05T20:28:56.483Z,73.44
2022-12-05T20:31:25.416Z,73.41
2022-12-05T20:33:53.722Z,73.45
2022-12-05T20:36:22.578Z,73.39
2022-12-05T20:38:53.975Z,73.48
2022-12-05T20:41:20.389Z,73.15
2022-12-05T20:43:51.910Z,73.53
2022-12-05T20:46:20.154Z,73.42
2022-12-05T20:48:47.641Z,73.49
2022-12-05T20:51:16.821Z,73.23
2022-12-05T20:53:44.843Z,73.26
2022-12-05T20:56:16.732Z,73.07
2022-12-05T20:58:48.396Z,73.29
2022-12-05T21:01:16.210Z,73.48
2022-12-05T21:03:44.943Z,73.25
2022-12-05T21:06:17.752Z,73.46
2022-12-05T21:08:44.912Z,73.43
2022-12-05T21:11:12.343Z,73.22
2022-12-05T21:13:39.439Z,73.41
2022-12-05T21:16:09.688Z,73.34
2022-12-05T21:18:36.889Z,73.49
2022-12-05T21:21:05.920Z,73.00
2022-12-05T21:23:33.341Z,73.49
2022-12-05T21:26:06.412Z,73.34
2022-12-05T21:28:34.203Z,73.19
2022-12-05T21:31:25.974Z,73.29
2022-12-05T21:33:55.373Z,73.38
2022-12-05T21:36:23.336Z,73.37
2022-12-05T21:38:55.711Z,73.17
2022-12-05T21:41:25.552Z,73.34
2022-12-05T21:43:55.303Z,73.20
2022-12-05T21:46:24.514Z,73.22
2022-12-05T21:48:51.341Z,73.25
2022-12-05T21:51:18.007Z,73.27
2022-12-05T21:53:44.506Z,73.39
2022-12-05T21:56:16.681Z,73.28
2022-12-05T21:58:44.894Z,73.17
2022-12-05T22:01:17.374Z,73.49
2022-12-05T22:03:44.260Z,73.40
2022-12-05T22:06:13.184Z,73.35
2022-12-05T22:08:39.648Z,73.56
2022-12-05T22:11:15.297Z,73.23
2022-12-05T22:13:43.133Z,73.29
2022-12-05T22:16:10.428Z,73.22
2022-12-05T22:18:37.325Z,73.60
2022-12-05T22:21:07.188Z,73.25
2022-12-05T22:23:34.767Z,73.33
2022-12-05T22:26:06.854Z,73.32
2022-12-05T22:28:34.117Z,73.37
2022-12-05T22:31:03.598Z,73.41
2022-12-05T22:33:31.557Z,73.29
2022-12-05T22:36:00.269Z,73.49
2022-12-05T22:38:30.228Z,73.25
2022-12-05T22:41:02.300Z,73.28
2022-12-05T22:43:30.654Z,73.66
2022-12-05T22:45:57.171Z,73.58
2022-12-05T22:48:24.252Z,73.39
2022-12-05T22:50:53.925Z,73.42
2022-12-05T22:53:22.591Z,73.49
2022-12-05T22:55:49.435Z,73.54
2022-12-05T22:58:16.502Z,73.49
2022-12-05T23:00:43.876Z,73.57
2022-12-05T23:03:10.863Z,73.21
2022-12-05T23:05:42.319Z,73.56
2022-12-05T23:08:10.155Z,73.48
2022-12-05T23:10:39.092Z,73.45
2022-12-05T23:13:09.073Z,73.62
2022-12-05T23:15:38.772Z,73.32
2022-12-05T23:18:05.308Z,73.38
2022-12-05T23:20:32.373Z,73.47
2022-12-05T23:22:58.786Z,73.38
2022-12-05T23:25:25.194Z,73.55
2022-12-05T23:27:51.665Z,73.31
2022-12-05T23:30:18.515Z,73.66
2022-12-05T23:32:44.963Z,73.65
2022-12-05T23:35:11.749Z,73.24
2022-12-05T23:37:39.494Z,73.70
2022-12-05T23:40:06.476Z,73.37
2022-12-05T23:42:32.856Z,73.40
2022-12-05T23:44:59.301Z,73.34
2022-12-05T23:47:25.757Z,73.53
2022-12-05T23:49:52.497Z,73.60
2022-12-05T23:52:18.962Z,73.28
2022-12-05T23:54:45.351Z,73.37
2022-12-05T23:57:17.248Z,73.55
2022-12-05T23:59:44.135Z,73.46
